Time;durP1;ratioP1;P1;durP2;ratioP2;P2;SDS_P1;SDS_P2;PMS_P1;PMS_P2;Temp;Humidity;BMP_temperature;BMP_pressure;BME280_temperature;BME280_humidity;BME280_pressure;Samples;Min_cycle;Max_cycle;Signal;HPM_P1;HPM_P2
2021/04/27 00:01:47;;;;;;;2.15;1.10;;;5.80;99.90;;;;;;5100835;27;20032;-65
2021/04/27 00:04:13;;;;;;;2.78;1.23;;;5.80;99.90;;;;;;5098598;28;20040;-63
2021/04/27 00:06:38;;;;;;;3.15;0.93;;;5.80;99.90;;;;;;5101024;28;20032;-63
2021/04/27 00:09:07;;;;;;;7.15;1.20;;;5.80;99.90;;;;;;5101800;27;20035;-64
2021/04/27 00:11:34;;;;;;;1.80;1.00;;;5.80;99.90;;;;;;5096788;27;20028;-65
2021/04/27 00:14:00;;;;;;;4.28;1.35;;;5.70;99.90;;;;;;5100697;28;20036;-64
2021/04/27 00:16:25;;;;;;;3.70;1.45;;;5.70;99.90;;;;;;5098173;28;20095;-64
2021/04/27 00:18:51;;;;;;;3.35;1.17;;;5.70;99.90;;;;;;5098773;28;20398;-64
2021/04/27 00:21:17;;;;;;;7.68;1.77;;;5.70;99.90;;;;;;5100770;28;20039;-65
2021/04/27 00:23:42;;;;;;;4.32;1.40;;;5.70;99.90;;;;;;5101245;28;20108;-65
2021/04/27 00:26:08;;;;;;;3.85;1.50;;;5.70;99.90;;;;;;5101716;28;20024;-65
2021/04/27 00:28:33;;;;;;;4.38;0.90;;;5.70;99.90;;;;;;5097528;28;20024;-67
2021/04/27 00:30:59;;;;;;;3.38;1.08;;;5.70;99.90;;;;;;5100136;28;20035;-64
2021/04/27 00:33:25;;;;;;;3.28;1.08;;;5.60;99.90;;;;;;5098087;28;20112;-64
2021/04/27 00:35:50;;;;;;;4.55;0.93;;;5.60;99.90;;;;;;5099068;28;20569;-63
2021/04/27 00:38:16;;;;;;;2.97;1.60;;;5.60;99.90;;;;;;5103013;27;20043;-65
2021/04/27 00:40:42;;;;;;;5.55;1.60;;;5.60;99.90;;;;;;5099276;28;20052;-64
2021/04/27 00:43:07;;;;;;;6.10;1.33;;;5.60;99.90;;;;;;5102296;28;20028;-63
2021/04/27 00:45:33;;;;;;;3.90;1.20;;;5.50;99.90;;;;;;5100771;27;20038;-63
2021/04/27 00:47:59;;;;;;;3.03;1.65;;;5.50;99.90;;;;;;5097684;27;20035;-64
2021/04/27 00:50:34;;;;;;;1.77;1.02;;;5.50;99.90;;;;;;5100384;28;20035;-64
2021/04/27 00:53:00;;;;;;;2.58;0.98;;;5.40;99.90;;;;;;5098038;28;20478;-66
2021/04/27 00:55:26;;;;;;;4.78;1.10;;;5.40;99.90;;;;;;5100336;28;20454;-65
2021/04/27 00:57:52;;;;;;;4.65;1.23;;;5.40;99.90;;;;;;5099272;28;20039;-65
2021/04/27 01:00:22;;;;;;;2.80;1.20;;;5.40;99.90;;;;;;5099556;28;20480;-64
2021/04/27 01:02:48;;;;;;;3.67;1.30;;;5.40;99.90;;;;;;5100204;28;20112;-64
2021/04/27 01:05:16;;;;;;;3.42;1.55;;;5.30;99.90;;;;;;5100289;28;20485;-64
2021/04/27 01:07:55;;;;;;;2.20;1.10;;;5.30;99.90;;;;;;5113463;28;20027;-65
2021/04/27 01:10:24;;;;;;;9.45;1.40;;;5.30;99.90;;;;;;5111740;28;20031;-66
2021/04/27 01:13:09;;;;;;;6.93;1.30;;;5.20;99.90;;;;;;5110099;28;20055;-66
2021/04/27 01:15:36;;;;;;;6.25;1.38;;;5.20;99.90;;;;;;5104327;28;20086;-65
2021/04/27 01:18:02;;;;;;;2.50;1.13;;;5.10;99.90;;;;;;5099878;28;20039;-65
2021/04/27 01:20:46;;;;;;;4.28;1.58;;;5.10;99.90;;;;;;5097086;28;20040;-65
2021/04/27 01:23:11;;;;;;;5.13;1.20;;;5.10;99.90;;;;;;5096975;28;20032;-63
2021/04/27 01:25:48;;;;;;;4.53;1.38;;;5.10;99.90;;;;;;5100386;28;20480;-63
2021/04/27 01:28:15;;;;;;;4.97;1.20;;;5.10;99.90;;;;;;5097304;28;20063;-63
2021/04/27 01:30:42;;;;;;;2.53;1.05;;;5.00;99.90;;;;;;5099798;28;20051;-63
2021/04/27 01:33:28;;;;;;;4.32;1.50;;;5.00;99.90;;;;;;5095827;28;20024;-66
2021/04/27 01:35:57;;;;;;;3.25;1.23;;;5.00;99.90;;;;;;5097705;28;20098;-67
2021/04/27 01:38:23;;;;;;;5.10;1.08;;;5.00;99.90;;;;;;5100312;28;20513;-63
2021/04/27 01:40:49;;;;;;;4.63;1.30;;;5.00;99.90;;;;;;5097071;28;20630;-65
2021/04/27 01:43:17;;;;;;;3.25;1.10;;;4.90;99.90;;;;;;5104458;27;20051;-67
2021/04/27 01:45:44;;;;;;;3.58;1.00;;;5.00;99.90;;;;;;5097663;28;20028;-64
2021/04/27 01:48:10;;;;;;;6.50;1.27;;;5.00;99.90;;;;;;5097094;28;20462;-65
2021/04/27 01:50:36;;;;;;;3.25;1.27;;;5.00;99.90;;;;;;5100463;28;20652;-65
2021/04/27 01:53:02;;;;;;;3.78;1.60;;;5.00;99.90;;;;;;5095748;28;20104;-64
2021/04/27 01:55:28;;;;;;;4.25;1.20;;;4.90;99.90;;;;;;5098525;28;20652;-63
2021/04/27 01:57:53;;;;;;;10.15;1.50;;;4.90;99.90;;;;;;5095731;28;20024;-64
2021/04/27 02:00:23;;;;;;;6.63;2.33;;;4.90;99.90;;;;;;5097791;28;20412;-63
2021/04/27 02:02:49;;;;;;;1.88;0.77;;;4.80;99.90;;;;;;5097733;28;20156;-63
2021/04/27 02:05:15;;;;;;;2.53;0.93;;;4.80;99.90;;;;;;5097024;28;20028;-65
2021/04/27 02:07:41;;;;;;;3.40;1.20;;;4.80;99.90;;;;;;5098832;28;20043;-64
2021/04/27 02:10:10;;;;;;;5.65;1.70;;;4.80;99.90;;;;;;5095388;28;20056;-65
2021/04/27 02:12:39;;;;;;;2.67;1.10;;;4.80;99.90;;;;;;5097964;28;20040;-63
2021/04/27 02:15:08;;;;;;;2.80;1.40;;;4.80;99.90;;;;;;5095673;28;20753;-65
2021/04/27 02:17:39;;;;;;;4.20;0.93;;;4.80;99.90;;;;;;5095858;28;20127;-67
2021/04/27 02:20:06;;;;;;;6.20;2.30;;;4.70;99.90;;;;;;5095511;28;20116;-64
2021/04/27 02:22:32;;;;;;;2.70;1.42;;;4.70;99.90;;;;;;5098325;28;20385;-64
2021/04/27 02:24:59;;;;;;;3.63;1.10;;;4.70;99.90;;;;;;5094804;28;20577;-64
2021/04/27 02:27:26;;;;;;;6.60;1.55;;;4.70;99.90;;;;;;5097523;28;20035;-64
2021/04/27 02:29:53;;;;;;;3.35;1.50;;;4.70;99.90;;;;;;5094778;28;20044;-64
2021/04/27 02:32:19;;;;;;;6.25;1.33;;;4.70;99.90;;;;;;5103549;28;20515;-64
2021/04/27 02:34:47;;;;;;;8.95;1.38;;;4.60;99.90;;;;;;5096732;28;20036;-64
2021/04/27 02:37:13;;;;;;;4.82;1.45;;;4.70;99.90;;;;;;5097928;28;20028;-64
2021/04/27 02:39:39;;;;;;;6.80;1.52;;;4.70;99.90;;;;;;5098443;28;20035;-64
2021/04/27 02:42:05;;;;;;;4.65;1.27;;;4.60;99.90;;;;;;5101824;28;20031;-64
2021/04/27 02:44:31;;;;;;;2.40;1.15;;;4.60;99.90;;;;;;5094745;28;20597;-63
2021/04/27 02:46:56;;;;;;;2.55;1.10;;;4.60;99.90;;;;;;5099952;28;20032;-64
2021/04/27 02:49:22;;;;;;;13.77;2.17;;;4.50;99.90;;;;;;5097025;28;20123;-64
2021/04/27 02:51:48;;;;;;;4.38;1.15;;;4.50;99.90;;;;;;5100426;28;20054;-64
2021/04/27 02:54:14;;;;;;;3.15;1.00;;;4.60;99.90;;;;;;5099889;28;20055;-64
2021/04/27 02:56:40;;;;;;;4.13;0.95;;;4.60;99.90;;;;;;5099427;28;20032;-64
2021/04/27 02:59:06;;;;;;;3.03;1.38;;;4.50;99.90;;;;;;5100969;28;20128;-64
2021/04/27 03:01:33;;;;;;;2.13;1.10;;;4.50;99.90;;;;;;5097886;28;20485;-64
2021/04/27 03:03:59;;;;;;;2.55;1.15;;;4.40;99.90;;;;;;5101624;28;20032;-64
2021/04/27 03:06:24;;;;;;;4.57;1.30;;;4.40;99.90;;;;;;5098014;28;20032;-64
2021/04/27 03:08:50;;;;;;;4.97;1.13;;;4.40;99.90;;;;;;5100087;28;20029;-64
2021/04/27 03:11:16;;;;;;;2.83;1.17;;;4.40;99.90;;;;;;5098774;28;20114;-64
2021/04/27 03:13:42;;;;;;;3.13;1.05;;;4.30;99.90;;;;;;5099572;28;20036;-64
2021/04/27 03:16:08;;;;;;;2.55;1.30;;;4.40;99.90;;;;;;5100554;28;20481;-64
2021/04/27 03:18:33;;;;;;;8.65;1.63;;;4.40;99.90;;;;;;5097901;28;20118;-64
2021/04/27 03:20:59;;;;;;;3.33;1.27;;;4.30;99.90;;;;;;5101359;28;20503;-64
2021/04/27 03:23:25;;;;;;;3.58;1.42;;;4.40;99.90;;;;;;5097434;28;20477;-64
2021/04/27 03:25:51;;;;;;;4.40;1.33;;;4.30;99.90;;;;;;5100564;28;20545;-64
2021/04/27 03:28:17;;;;;;;5.82;1.08;;;4.20;99.90;;;;;;5098075;28;20036;-64
2021/04/27 03:30:43;;;;;;;3.28;1.25;;;4.20;99.90;;;;;;5102062;28;20028;-64
2021/04/27 03:33:08;;;;;;;8.27;1.60;;;4.20;99.90;;;;;;5100120;28;20152;-64
2021/04/27 03:35:34;;;;;;;7.18;1.60;;;4.30;99.90;;;;;;5100729;28;20030;-64
2021/04/27 03:38:00;;;;;;;3.22;1.50;;;4.30;99.90;;;;;;5101005;27;20036;-63
2021/04/27 03:40:25;;;;;;;6.35;1.38;;;4.30;99.90;;;;;;5099410;28;20050;-64
2021/04/27 03:42:51;;;;;;;7.25;1.50;;;4.20;99.90;;;;;;5103637;27;20038;-64
2021/04/27 03:45:19;;;;;;;4.63;1.60;;;4.20;99.90;;;;;;5098000;28;20044;-64
2021/04/27 03:47:45;;;;;;;3.08;0.95;;;4.20;99.90;;;;;;5099661;28;20056;-64
2021/04/27 03:50:15;;;;;;;4.78;1.45;;;4.10;99.90;;;;;;5098606;28;20059;-64
2021/04/27 03:52:41;;;;;;;3.60;1.92;;;4.10;99.90;;;;;;5098341;28;20457;-64
2021/04/27 03:55:07;;;;;;;6.05;1.67;;;4.00;99.90;;;;;;5099548;28;20067;-64
2021/04/27 03:57:32;;;;;;;4.45;1.70;;;4.00;99.90;;;;;;5097293;28;20408;-64
2021/04/27 03:59:58;;;;;;;7.05;1.60;;;4.00;99.90;;;;;;5099260;28;20028;-64
2021/04/27 04:02:24;;;;;;;4.47;1.92;;;4.00;99.90;;;;;;5100319;27;20434;-64
2021/04/27 04:04:49;;;;;;;4.38;1.95;;;4.00;99.90;;;;;;5097484;28;20434;-64
2021/04/27 04:07:15;;;;;;;4.03;1.60;;;4.00;99.90;;;;;;5097196;28;20044;-64
2021/04/27 04:09:40;;;;;;;2.58;1.65;;;4.10;99.90;;;;;;5098017;28;20032;-64
2021/04/27 04:12:09;;;;;;;4.15;1.38;;;4.10;99.90;;;;;;5099119;28;20040;-64
2021/04/27 04:14:36;;;;;;;5.82;1.80;;;4.10;99.90;;;;;;5097789;28;20036;-64
2021/04/27 04:17:03;;;;;;;4.65;1.60;;;4.20;99.90;;;;;;5099423;28;20146;-64
2021/04/27 04:19:28;;;;;;;6.75;1.67;;;4.20;99.90;;;;;;5096120;28;20446;-64
2021/04/27 04:21:54;;;;;;;5.70;1.73;;;4.20;99.90;;;;;;5100346;28;20126;-64
2021/04/27 04:24:20;;;;;;;5.20;1.60;;;4.30;99.90;;;;;;5095714;28;20150;-64
2021/04/27 04:26:45;;;;;;;3.83;1.70;;;4.30;99.90;;;;;;5099114;28;20063;-64
2021/04/27 04:29:11;;;;;;;10.60;1.85;;;4.30;99.90;;;;;;5096336;28;20467;-64
2021/04/27 04:31:36;;;;;;;3.80;1.65;;;4.30;99.90;;;;;;5097998;28;20040;-64
2021/04/27 04:34:02;;;;;;;3.83;1.70;;;4.30;99.90;;;;;;5099468;28;20194;-64
2021/04/27 04:36:28;;;;;;;6.53;2.20;;;4.20;99.90;;;;;;5104914;27;20035;-64
2021/04/27 04:38:54;;;;;;;6.03;1.65;;;4.30;99.90;;;;;;5100031;28;20563;-63
2021/04/27 04:41:19;;;;;;;5.40;1.88;;;4.30;99.90;;;;;;5100616;27;20485;-64
2021/04/27 04:43:45;;;;;;;6.93;2.20;;;4.30;99.90;;;;;;5098224;27;20039;-64
2021/04/27 04:46:10;;;;;;;4.80;1.75;;;4.30;99.90;;;;;;5099591;28;20036;-64
2021/04/27 04:48:36;;;;;;;2.60;1.25;;;4.30;99.90;;;;;;5098687;28;20079;-64
2021/04/27 04:51:02;;;;;;;12.35;1.92;;;4.30;99.90;;;;;;5101625;28;20051;-64
2021/04/27 04:53:28;;;;;;;2.97;1.63;;;4.30;99.90;;;;;;5112528;28;20043;-65
2021/04/27 04:55:54;;;;;;;3.70;1.50;;;4.30;99.90;;;;;;5109295;28;20032;-64
2021/04/27 04:58:19;;;;;;;2.47;1.50;;;4.40;99.90;;;;;;5113703;28;20389;-65
2021/04/27 05:00:45;;;;;;;2.67;1.70;;;4.30;99.90;;;;;;5100289;28;20063;-63
2021/04/27 05:03:10;;;;;;;4.60;1.63;;;4.40;99.90;;;;;;5097980;28;20044;-64
2021/04/27 05:05:36;;;;;;;4.85;1.60;;;4.50;99.90;;;;;;5097259;28;20046;-64
2021/04/27 05:10:33;;;;;;;6.72;2.38;;;4.60;99.90;;;;;;5097535;28;20023;-64
2021/04/27 05:12:59;;;;;;;3.80;1.50;;;4.60;99.90;;;;;;5095564;28;20077;-64
2021/04/27 05:15:25;;;;;;;2.58;1.40;;;4.70;99.90;;;;;;5099096;28;20504;-64
2021/04/27 05:17:50;;;;;;;3.13;1.55;;;4.70;99.90;;;;;;5095149;28;20457;-64
2021/04/27 05:20:17;;;;;;;3.70;1.73;;;4.80;99.90;;;;;;5097956;28;20066;-64
2021/04/27 05:22:45;;;;;;;2.97;1.83;;;4.80;99.90;;;;;;5095564;28;20039;-64
2021/04/27 05:25:12;;;;;;;3.83;1.58;;;4.90;99.90;;;;;;5097827;28;20036;-64
2021/04/27 05:27:38;;;;;;;5.57;1.60;;;4.90;99.90;;;;;;5096427;28;20077;-64
2021/04/27 05:30:05;;;;;;;4.20;2.03;;;4.90;99.90;;;;;;5096712;28;20036;-64
2021/04/27 05:32:30;;;;;;;5.35;1.58;;;5.00;99.90;;;;;;5098215;28;20036;-64
2021/04/27 05:34:56;;;;;;;7.18;2.08;;;5.10;99.90;;;;;;5108651;27;20027;-64
2021/04/27 05:37:22;;;;;;;4.47;2.13;;;5.20;99.90;;;;;;5109024;27;20035;-64
2021/04/27 05:39:47;;;;;;;4.80;1.52;;;5.40;99.90;;;;;;5101010;27;20031;-64
2021/04/27 05:42:13;;;;;;;3.28;1.80;;;5.60;99.90;;;;;;5095268;28;20472;-64
2021/04/27 05:44:39;;;;;;;5.65;1.60;;;5.80;99.90;;;;;;5097688;27;20044;-64
2021/04/27 05:47:04;;;;;;;2.90;1.70;;;5.90;99.90;;;;;;5096991;28;20027;-64
2021/04/27 05:49:30;;;;;;;10.90;2.25;;;6.00;99.90;;;;;;5095884;28;20028;-64
2021/04/27 05:51:56;;;;;;;5.20;1.52;;;6.30;99.90;;;;;;5094859;27;20662;-64
2021/04/27 05:54:22;;;;;;;7.25;1.58;;;6.50;99.90;;;;;;5093360;28;20067;-64
2021/04/27 05:56:47;;;;;;;4.00;1.60;;;6.80;99.90;;;;;;5095367;28;20127;-64
2021/04/27 05:59:13;;;;;;;3.05;1.45;;;8.00;99.90;;;;;;5096604;28;20047;-64
2021/04/27 06:01:39;;;;;;;5.50;1.23;;;8.70;99.90;;;;;;5095499;28;20036;-64
2021/04/27 06:04:05;;;;;;;4.55;1.30;;;8.80;99.90;;;;;;5093375;28;20032;-64
2021/04/27 06:06:35;;;;;;;4.13;1.48;;;9.50;99.20;;;;;;5093769;28;20027;-64
2021/04/27 06:09:02;;;;;;;3.65;1.60;;;9.60;96.90;;;;;;5097569;28;20035;-64
2021/04/27 06:11:27;;;;;;;6.80;1.58;;;9.70;97.50;;;;;;5097153;27;20459;-64
2021/04/27 06:13:53;;;;;;;5.75;1.85;;;10.00;97.20;;;;;;5093850;28;20029;-64
2021/04/27 06:16:18;;;;;;;6.03;1.50;;;10.10;95.10;;;;;;5099746;28;20035;-64
2021/04/27 06:18:44;;;;;;;4.63;1.50;;;10.30;93.60;;;;;;5095100;28;20027;-64
2021/04/27 06:21:09;;;;;;;3.78;1.30;;;10.10;93.50;;;;;;5093605;28;20669;-64
2021/04/27 06:23:35;;;;;;;2.88;1.48;;;10.10;93.70;;;;;;5097916;28;20028;-64
2021/04/27 06:26:01;;;;;;;2.47;1.20;;;9.90;93.50;;;;;;5096056;28;20138;-64
2021/04/27 06:28:26;;;;;;;3.60;1.30;;;9.60;93.40;;;;;;5097159;28;20393;-64
2021/04/27 06:30:52;;;;;;;8.00;1.80;;;9.50;93.30;;;;;;5098314;28;20035;-64
2021/04/27 06:33:17;;;;;;;4.28;1.88;;;9.30;94.20;;;;;;5102232;28;20392;-64
2021/04/27 06:35:43;;;;;;;4.35;1.63;;;9.10;95.40;;;;;;5098498;28;20035;-64
2021/04/27 06:38:09;;;;;;;6.95;1.70;;;9.20;95.60;;;;;;5104279;27;20042;-64
2021/04/27 06:40:35;;;;;;;7.47;1.90;;;9.20;94.90;;;;;;5098312;28;20028;-64
2021/04/27 06:43:01;;;;;;;5.22;2.05;;;9.20;93.70;;;;;;5099179;28;20135;-64
2021/04/27 06:45:27;;;;;;;5.20;1.30;;;9.10;93.70;;;;;;5104479;27;20122;-64
2021/04/27 06:47:52;;;;;;;3.70;1.85;;;9.10;94.00;;;;;;5098766;28;20065;-64
2021/04/27 06:50:18;;;;;;;4.30;1.52;;;9.00;94.50;;;;;;5097677;28;20040;-64
2021/04/27 06:52:45;;;;;;;4.07;1.50;;;9.10;95.70;;;;;;5099729;28;20037;-64
2021/04/27 06:55:11;;;;;;;5.43;1.80;;;9.20;94.20;;;;;;5100393;28;20164;-64
2021/04/27 06:57:37;;;;;;;4.28;1.80;;;9.30;93.80;;;;;;5105424;27;20448;-63
2021/04/27 07:00:06;;;;;;;3.45;1.77;;;9.40;93.70;;;;;;5097657;28;20084;-64
2021/04/27 07:02:32;;;;;;;5.22;1.13;;;9.60;93.70;;;;;;5097609;28;20036;-64
2021/04/27 07:04:57;;;;;;;4.38;1.73;;;9.90;92.50;;;;;;5098689;28;20108;-64
2021/04/27 07:07:24;;;;;;;6.20;1.75;;;10.20;91.60;;;;;;5104002;28;20035;-64
2021/04/27 07:09:49;;;;;;;3.75;1.40;;;10.40;90.00;;;;;;5100430;28;20036;-64
2021/04/27 07:12:15;;;;;;;7.25;1.73;;;10.70;90.10;;;;;;5100138;28;20589;-64
2021/04/27 07:14:40;;;;;;;4.63;1.88;;;10.90;84.00;;;;;;5094166;28;20032;-64
2021/04/27 07:17:07;;;;;;;6.85;2.17;;;10.90;81.50;;;;;;5101250;28;20036;-65
2021/04/27 07:19:33;;;;;;;6.53;1.95;;;10.90;82.00;;;;;;5099155;28;20032;-64
2021/04/27 07:21:58;;;;;;;2.45;1.38;;;10.80;80.30;;;;;;5100811;28;20039;-65
2021/04/27 07:24:25;;;;;;;7.30;2.05;;;10.70;83.00;;;;;;5101153;28;20035;-65
2021/04/27 07:26:50;;;;;;;5.25;2.17;;;10.60;83.60;;;;;;5101631;28;20041;-65
2021/04/27 07:29:17;;;;;;;2.53;1.55;;;10.90;80.10;;;;;;5098871;28;20044;-65
2021/04/27 07:31:43;;;;;;;2.75;1.70;;;11.30;76.60;;;;;;5095805;27;20032;-65
2021/04/27 07:34:09;;;;;;;4.82;1.50;;;11.50;73.80;;;;;;5090843;28;20621;-65
2021/04/27 07:36:35;;;;;;;3.38;1.45;;;11.60;75.40;;;;;;5096740;27;20035;-64
2021/04/27 07:39:04;;;;;;;7.43;1.77;;;11.90;73.00;;;;;;5094135;28;20108;-65
2021/04/27 07:41:30;;;;;;;3.97;1.85;;;12.10;69.60;;;;;;5097555;28;20020;-65
2021/04/27 07:43:56;;;;;;;4.43;2.20;;;12.00;70.50;;;;;;5100072;27;20499;-64
2021/04/27 07:46:21;;;;;;;3.58;1.95;;;12.30;69.00;;;;;;5095673;28;20527;-65
2021/04/27 07:48:47;;;;;;;4.68;1.42;;;12.40;66.40;;;;;;5094011;28;20028;-64
2021/04/27 07:51:14;;;;;;;4.70;1.77;;;12.50;64.60;;;;;;5098456;28;20396;-64
2021/04/27 07:53:40;;;;;;;7.15;1.98;;;12.50;63.70;;;;;;5098864;28;20540;-65
2021/04/27 07:56:05;;;;;;;5.00;1.52;;;12.50;63.50;;;;;;5097198;27;20036;-65
2021/04/27 07:58:31;;;;;;;8.43;2.05;;;12.80;62.50;;;;;;5093706;28;20151;-64
2021/04/27 08:00:57;;;;;;;4.65;2.05;;;12.80;60.70;;;;;;5089490;28;20442;-64
2021/04/27 08:03:22;;;;;;;6.55;1.65;;;12.80;62.20;;;;;;5094566;28;20085;-65
2021/04/27 08:05:48;;;;;;;5.53;1.80;;;13.00;59.50;;;;;;5092598;28;20489;-64
2021/04/27 08:08:14;;;;;;;4.13;1.70;;;13.00;59.40;;;;;;5095715;28;20028;-64
2021/04/27 08:10:41;;;;;;;3.30;1.27;;;12.80;58.90;;;;;;5099958;28;20028;-64
2021/04/27 08:13:06;;;;;;;4.70;1.80;;;12.60;60.60;;;;;;5095694;28;20484;-64
2021/04/27 08:15:32;;;;;;;6.32;1.98;;;12.60;62.50;;;;;;5098721;28;20036;-64
2021/04/27 08:18:00;;;;;;;3.47;1.55;;;12.70;62.90;;;;;;5099191;28;20553;-64
2021/04/27 08:20:28;;;;;;;4.97;2.33;;;12.80;60.60;;;;;;5096410;28;20043;-65
2021/04/27 08:22:54;;;;;;;6.63;1.88;;;13.10;58.50;;;;;;5099573;28;20046;-65
2021/04/27 08:25:21;;;;;;;5.50;1.73;;;13.10;58.00;;;;;;5098979;28;20469;-66
2021/04/27 08:27:47;;;;;;;6.25;1.52;;;13.20;58.10;;;;;;5099677;27;20039;-65
2021/04/27 08:30:15;;;;;;;2.92;1.60;;;13.30;57.40;;;;;;5097343;28;20028;-64
2021/04/27 08:32:41;;;;;;;4.55;1.92;;;13.30;57.90;;;;;;5102069;27;20027;-65
2021/04/27 08:35:09;;;;;;;3.92;1.77;;;13.40;57.50;;;;;;5105944;27;20051;-65
2021/04/27 08:37:34;;;;;;;6.07;1.83;;;13.40;56.90;;;;;;5108893;27;20028;-66
2021/04/27 08:40:00;;;;;;;3.72;1.77;;;13.30;59.10;;;;;;5109364;28;20051;-62
2021/04/27 08:42:26;;;;;;;5.93;1.70;;;13.30;58.50;;;;;;5104122;28;20053;-65
2021/04/27 08:44:52;;;;;;;3.72;1.70;;;13.30;58.00;;;;;;5100301;28;20044;-63
2021/04/27 08:47:22;;;;;;;4.18;1.90;;;13.30;57.50;;;;;;5096810;28;20124;-66
2021/04/27 08:49:48;;;;;;;3.67;1.70;;;13.40;57.10;;;;;;5096765;28;20116;-66
2021/04/27 08:52:13;;;;;;;4.68;2.17;;;13.30;57.00;;;;;;5096388;28;20121;-66
2021/04/27 08:54:39;;;;;;;4.05;1.90;;;13.30;56.50;;;;;;5096541;28;20426;-66
2021/04/27 08:57:05;;;;;;;9.10;2.22;;;13.30;56.70;;;;;;5098223;28;20032;-66
2021/04/27 08:59:31;;;;;;;4.57;1.85;;;13.20;57.40;;;;;;5094687;28;20114;-66
2021/04/27 09:01:57;;;;;;;3.30;1.77;;;13.40;57.90;;;;;;5104528;28;20039;-65
2021/04/27 09:04:36;;;;;;;3.25;1.70;;;13.50;57.50;;;;;;5098141;28;20273;-66
2021/04/27 09:07:04;;;;;;;5.40;1.98;;;13.50;57.80;;;;;;5106281;28;20102;-66
2021/04/27 09:09:38;;;;;;;6.30;2.05;;;13.60;57.30;;;;;;5094913;28;20043;-66
2021/04/27 09:12:04;;;;;;;7.50;2.13;;;13.60;57.40;;;;;;5102930;28;20126;-66
2021/04/27 09:14:29;;;;;;;2.95;1.67;;;13.90;56.70;;;;;;5097605;28;20088;-65
2021/04/27 09:16:59;;;;;;;7.50;2.20;;;14.10;57.10;;;;;;5092507;28;20055;-66
2021/04/27 09:19:38;;;;;;;8.15;2.28;;;14.20;55.00;;;;;;5096156;28;20077;-66
2021/04/27 09:22:09;;;;;;;7.88;2.20;;;14.40;53.60;;;;;;5098187;28;20027;-65
2021/04/27 09:24:41;;;;;;;3.17;1.67;;;14.50;52.60;;;;;;5099257;28;20046;-66
2021/04/27 09:27:07;;;;;;;3.67;1.50;;;14.50;52.90;;;;;;5094264;28;20036;-66
2021/04/27 09:29:36;;;;;;;3.35;1.73;;;14.60;52.80;;;;;;5094636;28;20032;-66
2021/04/27 09:32:02;;;;;;;7.90;2.13;;;14.60;52.00;;;;;;5096717;28;20031;-66
2021/04/27 09:34:35;;;;;;;3.00;1.40;;;14.80;49.80;;;;;;5094930;28;20035;-65
2021/04/27 09:37:11;;;;;;;2.80;1.33;;;14.90;48.60;;;;;;5100179;27;20028;-66
2021/04/27 09:39:40;;;;;;;8.93;1.77;;;15.00;49.90;;;;;;5101503;28;20027;-66
2021/04/27 09:42:13;;;;;;;6.35;1.98;;;15.00;48.20;;;;;;5095733;28;20113;-62
2021/04/27 09:44:58;;;;;;;3.38;1.65;;;15.10;51.30;;;;;;5101331;28;20028;-66
2021/04/27 09:47:30;;;;;;;2.85;1.75;;;15.30;48.50;;;;;;5096582;28;20032;-66
2021/04/27 09:50:02;;;;;;;5.43;1.58;;;15.40;49.50;;;;;;5096609;28;20039;-65
2021/04/27 09:52:29;;;;;;;10.73;2.95;;;15.50;45.90;;;;;;5100024;28;20108;-65
2021/04/27 09:55:07;;;;;;;4.53;1.67;;;15.50;47.10;;;;;;5093506;28;20097;-63
2021/04/27 09:57:46;;;;;;;4.75;1.98;;;15.50;45.70;;;;;;5093939;28;20055;-65
2021/04/27 10:00:31;;;;;;;2.97;1.30;;;15.60;45.60;;;;;;5094285;28;20193;-66
2021/04/27 10:02:59;;;;;;;2.80;1.55;;;15.80;44.80;;;;;;5095294;28;20043;-66
2021/04/27 10:05:26;;;;;;;3.83;2.03;;;15.80;43.90;;;;;;5096527;28;20146;-66
2021/04/27 10:07:52;;;;;;;5.35;2.17;;;15.80;43.80;;;;;;5096230;28;20639;-65
2021/04/27 10:10:19;;;;;;;2.88;1.65;;;15.80;43.10;;;;;;5095340;28;20120;-66
2021/04/27 10:12:47;;;;;;;3.10;1.52;;;15.70;42.20;;;;;;5098924;28;20032;-64
2021/04/27 10:15:13;;;;;;;3.13;1.50;;;15.60;43.10;;;;;;5095717;28;20063;-65
2021/04/27 10:17:39;;;;;;;3.08;1.48;;;15.60;41.70;;;;;;5098651;28;20024;-65
2021/04/27 10:20:07;;;;;;;2.80;1.20;;;15.70;42.50;;;;;;5094465;28;20039;-65
2021/04/27 10:22:34;;;;;;;5.13;2.28;;;15.80;42.50;;;;;;5095215;28;20035;-62
2021/04/27 10:25:01;;;;;;;3.35;1.80;;;15.80;42.50;;;;;;5098835;28;20036;-66
2021/04/27 10:27:28;;;;;;;2.97;1.80;;;15.70;42.60;;;;;;5094830;28;20032;-66
2021/04/27 10:29:57;;;;;;;3.05;1.60;;;15.60;43.40;;;;;;5097519;28;20051;-66
2021/04/27 10:32:25;;;;;;;5.70;1.90;;;15.60;44.90;;;;;;5096012;28;20183;-62
2021/04/27 10:34:57;;;;;;;3.47;1.42;;;15.70;43.90;;;;;;5098764;28;20032;-66
2021/04/27 10:37:25;;;;;;;3.85;1.70;;;15.80;45.10;;;;;;5098095;28;20040;-63
2021/04/27 10:39:50;;;;;;;3.65;1.70;;;15.90;44.70;;;;;;5096078;28;20024;-66
2021/04/27 10:42:19;;;;;;;2.70;1.40;;;16.00;44.40;;;;;;5095807;28;20028;-64
2021/04/27 10:45:02;;;;;;;4.03;1.40;;;16.10;44.70;;;;;;5099387;28;20074;-65
2021/04/27 10:47:37;;;;;;;4.03;1.83;;;16.10;42.10;;;;;;5100833;28;20135;-66
2021/04/27 10:50:04;;;;;;;4.47;1.90;;;16.10;44.50;;;;;;5094769;28;20468;-64
2021/04/27 10:52:39;;;;;;;2.63;1.77;;;16.10;42.10;;;;;;5094329;28;20044;-66
2021/04/27 10:55:37;;;;;;;5.00;1.65;;;16.20;41.90;;;;;;5093910;28;20056;-63
2021/04/27 10:58:04;;;;;;;4.90;1.58;;;16.20;41.80;;;;;;5071302;28;20036;-66
2021/04/27 11:00:43;;;;;;;5.55;1.55;;;16.20;40.90;;;;;;5093675;28;20078;-64
2021/04/27 11:03:12;;;;;;;6.70;1.67;;;16.10;40.50;;;;;;5094527;28;20484;-66
2021/04/27 11:05:49;;;;;;;3.93;1.27;;;16.00;41.60;;;;;;5091917;28;20036;-65
2021/04/27 11:08:15;;;;;;;2.95;1.70;;;16.00;42.00;;;;;;5093289;28;20299;-62
2021/04/27 11:10:45;;;;;;;5.47;2.05;;;16.00;40.60;;;;;;5096072;28;20066;-65
2021/04/27 11:13:13;;;;;;;5.00;1.67;;;15.90;41.60;;;;;;5100637;27;21685;-64
2021/04/27 11:15:41;;;;;;;3.17;1.65;;;15.90;41.20;;;;;;5097832;28;20088;-66
2021/04/27 11:18:19;;;;;;;7.35;1.80;;;15.90;41.90;;;;;;5094584;28;20036;-66
2021/04/27 11:21:02;;;;;;;4.18;2.03;;;15.90;41.00;;;;;;5098818;28;20520;-65
2021/04/27 11:23:41;;;;;;;3.08;1.77;;;15.90;41.20;;;;;;5099823;28;20047;-66
2021/04/27 11:26:28;;;;;;;5.13;2.08;;;16.00;41.80;;;;;;5107727;28;20035;-66
2021/04/27 11:28:57;;;;;;;4.32;1.67;;;16.00;41.40;;;;;;5110246;28;20043;-65
2021/04/27 11:31:23;;;;;;;4.97;1.83;;;15.90;40.80;;;;;;5105318;28;20070;-65
2021/04/27 11:34:00;;;;;;;6.22;1.63;;;15.90;40.60;;;;;;5099215;28;20129;-65
2021/04/27 11:36:36;;;;;;;4.28;1.73;;;15.90;40.60;;;;;;5107344;27;20035;-65
2021/04/27 11:39:22;;;;;;;3.33;1.70;;;15.80;43.30;;;;;;5112513;27;20023;-66
2021/04/27 11:42:02;;;;;;;2.90;1.50;;;15.80;40.40;;;;;;5110764;27;20070;-66
2021/04/27 11:44:36;;;;;;;2.72;1.40;;;15.70;41.60;;;;;;5101324;27;20061;-66
2021/04/27 11:47:06;;;;;;;4.93;1.20;;;15.60;40.30;;;;;;5102430;27;20035;-66
2021/04/27 11:49:47;;;;;;;6.32;1.88;;;15.50;40.50;;;;;;5101056;28;20023;-66
2021/04/27 11:52:13;;;;;;;;;;;15.50;43.00;;;;;;5100172;28;20040;-63
2021/04/27 11:54:39;;;;;;;3.15;1.58;;;15.50;40.50;;;;;;5100443;27;19920;-64
2021/04/27 11:57:13;;;;;;;4.00;1.50;;;15.40;41.40;;;;;;5106191;27;20032;-66
2021/04/27 11:59:39;;;;;;;5.13;1.70;;;15.30;40.20;;;;;;5098604;28;20036;-65
2021/04/27 12:02:05;;;;;;;3.95;1.55;;;15.30;41.40;;;;;;5101599;28;20036;-66
2021/04/27 12:04:31;;;;;;;3.95;1.50;;;15.30;41.80;;;;;;5098163;28;20458;-66
2021/04/27 12:07:04;;;;;;;4.45;1.33;;;15.30;41.40;;;;;;5098194;28;20032;-65
2021/04/27 12:09:43;;;;;;;2.63;1.30;;;15.30;41.80;;;;;;5098353;28;20031;-71
2021/04/27 12:12:13;;;;;;;5.18;1.83;;;15.40;41.80;;;;;;5101750;27;20478;-68
2021/04/27 12:14:52;;;;;;;5.47;1.60;;;15.30;40.80;;;;;;5103015;28;20051;-63
2021/04/27 12:17:28;;;;;;;8.20;2.15;;;15.40;42.00;;;;;;5116121;28;20070;-63
2021/04/27 12:20:15;;;;;;;6.10;1.60;;;15.40;40.70;;;;;;5112741;28;20096;-68
2021/04/27 12:22:51;;;;;;;3.97;1.42;;;15.40;40.10;;;;;;5110376;28;20036;-65
2021/04/27 12:25:25;;;;;;;5.60;1.48;;;15.40;41.00;;;;;;5098058;28;20048;-65
2021/04/27 12:28:04;;;;;;;5.13;1.70;;;15.40;41.10;;;;;;5101872;27;20046;-64
2021/04/27 12:30:31;;;;;;;4.82;1.67;;;15.30;40.60;;;;;;5099109;28;20059;-64
2021/04/27 12:33:12;;;;;;;8.35;1.58;;;15.30;40.50;;;;;;5099970;28;20032;-63
2021/04/27 12:35:39;;;;;;;3.72;1.85;;;15.30;40.70;;;;;;5101243;28;20095;-65
2021/04/27 12:38:12;;;;;;;3.75;1.35;;;15.20;40.70;;;;;;5097960;28;20032;-66
2021/04/27 12:40:40;;;;;;;4.07;1.70;;;15.20;40.90;;;;;;5095915;28;20039;-65
2021/04/27 12:43:08;;;;;;;4.43;1.50;;;15.20;41.60;;;;;;5100106;28;20489;-66
2021/04/27 12:45:51;;;;;;;2.72;1.35;;;15.20;40.70;;;;;;5097696;28;20032;-65
2021/04/27 12:48:19;;;;;;;3.33;1.77;;;15.20;41.60;;;;;;5098412;27;20051;-64
2021/04/27 12:51:05;;;;;;;2.85;1.42;;;15.30;40.90;;;;;;5099191;28;20396;-65
2021/04/27 12:53:36;;;;;;;5.03;1.75;;;15.40;41.00;;;;;;5100983;28;20045;-65
2021/04/27 12:56:11;;;;;;;7.03;1.58;;;15.30;40.30;;;;;;5097564;27;20408;-64
2021/04/27 12:58:37;;;;;;;2.67;1.50;;;15.30;40.80;;;;;;5098970;28;20039;-66
2021/04/27 13:01:05;;;;;;;4.20;1.48;;;15.30;40.90;;;;;;5097272;28;20038;-65